sensor_id;sensor_type;location;lat;lon;timestamp;pressure;altitude;pressure_sealevel;temperature
65272;BMP280;51868;48.812;8.198;2023-04-25T00:01:17;99833.84;;;11.31
65272;BMP280;51868;48.812;8.198;2023-04-25T00:03:45;99831.00;;;11.29
65272;BMP280;51868;48.812;8.198;2023-04-25T00:06:14;99830.81;;;11.25
65272;BMP280;51868;48.812;8.198;2023-04-25T00:08:43;99825.13;;;11.21
65272;BMP280;51868;48.812;8.198;2023-04-25T00:11:11;99822.34;;;11.21
65272;BMP280;51868;48.812;8.198;2023-04-25T00:13:41;99826.56;;;11.22
65272;BMP280;51868;48.812;8.198;2023-04-25T00:16:09;99820.22;;;11.19
65272;BMP280;51868;48.812;8.198;2023-04-25T00:18:37;99829.09;;;11.16
65272;BMP280;51868;48.812;8.198;2023-04-25T00:21:05;99833.84;;;11.13
65272;BMP280;51868;48.812;8.198;2023-04-25T00:23:34;99834.47;;;11.11
65272;BMP280;51868;48.812;8.198;2023-04-25T00:26:02;99833.78;;;11.11
65272;BMP280;51868;48.812;8.198;2023-04-25T00:28:30;99838.63;;;11.10
65272;BMP280;51868;48.812;8.198;2023-04-25T00:30:58;99833.69;;;11.09
65272;BMP280;51868;48.812;8.198;2023-04-25T00:33:26;99837.09;;;11.07
65272;BMP280;51868;48.812;8.198;2023-04-25T00:35:54;99832.09;;;11.04
65272;BMP280;51868;48.812;8.198;2023-04-25T00:38:21;99832.03;;;11.02
65272;BMP280;51868;48.812;8.198;2023-04-25T00:40:51;99832.66;;;11.00
65272;BMP280;51868;48.812;8.198;2023-04-25T00:43:19;99829.88;;;11.00
65272;BMP280;51868;48.812;8.198;2023-04-25T00:45:47;99832.56;;;10.98
65272;BMP280;51868;48.812;8.198;2023-04-25T00:48:19;99831.88;;;10.98
65272;BMP280;51868;48.812;8.198;2023-04-25T00:50:48;99825.69;;;10.99
65272;BMP280;51868;48.812;8.198;2023-04-25T00:53:19;99823.53;;;10.98
65272;BMP280;51868;48.812;8.198;2023-04-25T00:55:47;99829.66;;;10.94
65272;BMP280;51868;48.812;8.198;2023-04-25T00:58:18;99827.34;;;10.88
65272;BMP280;51868;48.812;8.198;2023-04-25T01:00:46;99821.63;;;10.84
65272;BMP280;51868;48.812;8.198;2023-04-25T01:03:18;99820.91;;;10.84
65272;BMP280;51868;48.812;8.198;2023-04-25T01:05:46;99808.41;;;10.83
65272;BMP280;51868;48.812;8.198;2023-04-25T01:08:14;99811.25;;;10.85
65272;BMP280;51868;48.812;8.198;2023-04-25T01:10:42;99809.25;;;10.87
65272;BMP280;51868;48.812;8.198;2023-04-25T01:13:10;99814.09;;;10.87
65272;BMP280;51868;48.812;8.198;2023-04-25T01:15:39;99815.53;;;10.88
65272;BMP280;51868;48.812;8.198;2023-04-25T01:18:07;99817.69;;;10.90
65272;BMP280;51868;48.812;8.198;2023-04-25T01:20:37;99815.53;;;10.88
65272;BMP280;51868;48.812;8.198;2023-04-25T01:23:07;99811.25;;;10.85
65272;BMP280;51868;48.812;8.198;2023-04-25T01:25:35;99812.66;;;10.86
65272;BMP280;51868;48.812;8.198;2023-04-25T01:28:03;99802.25;;;10.86
65272;BMP280;51868;48.812;8.198;2023-04-25T01:30:31;99812.59;;;10.84
65272;BMP280;51868;48.812;8.198;2023-04-25T01:32:59;99807.69;;;10.82
65272;BMP280;51868;48.812;8.198;2023-04-25T01:35:29;99813.88;;;10.81
65272;BMP280;51868;48.812;8.198;2023-04-25T01:37:57;99813.00;;;10.76
65272;BMP280;51868;48.812;8.198;2023-04-25T01:40:26;99812.19;;;10.74
65272;BMP280;51868;48.812;8.198;2023-04-25T01:42:54;99810.66;;;10.71
65272;BMP280;51868;48.812;8.198;2023-04-25T01:45:22;99818.84;;;10.67
65272;BMP280;51868;48.812;8.198;2023-04-25T01:47:52;99817.09;;;10.57
65272;BMP280;51868;48.812;8.198;2023-04-25T01:50:22;99825.22;;;10.53
65272;BMP280;51868;48.812;8.198;2023-04-25T01:52:50;99812.00;;;10.52
65272;BMP280;51868;48.812;8.198;2023-04-25T01:55:17;99813.34;;;10.51
65272;BMP280;51868;48.812;8.198;2023-04-25T01:57:47;99804.38;;;10.52
65272;BMP280;51868;48.812;8.198;2023-04-25T02:00:15;99815.56;;;10.54
65272;BMP280;51868;48.812;8.198;2023-04-25T02:02:43;99807.22;;;10.54
65272;BMP280;51868;48.812;8.198;2023-04-25T02:05:11;99810.81;;;10.57
65272;BMP280;51868;48.812;8.198;2023-04-25T02:07:38;99803.22;;;10.57
65272;BMP280;51868;48.812;8.198;2023-04-25T02:10:07;99802.56;;;10.59
65272;BMP280;51868;48.812;8.198;2023-04-25T02:12:35;99807.41;;;10.58
65272;BMP280;51868;48.812;8.198;2023-04-25T02:15:05;99804.53;;;10.56
65272;BMP280;51868;48.812;8.198;2023-04-25T02:17:33;99814.22;;;10.55
65272;BMP280;51868;48.812;8.198;2023-04-25T02:20:01;99812.06;;;10.54
65272;BMP280;51868;48.812;8.198;2023-04-25T02:22:29;99804.94;;;10.49
65272;BMP280;51868;48.812;8.198;2023-04-25T02:24:57;99807.00;;;10.48
65272;BMP280;51868;48.812;8.198;2023-04-25T02:27:26;99798.69;;;10.48
65272;BMP280;51868;48.812;8.198;2023-04-25T02:29:54;99802.97;;;10.51
65272;BMP280;51868;48.812;8.198;2023-04-25T02:32:23;99808.53;;;10.51
65272;BMP280;51868;48.812;8.198;2023-04-25T02:34:51;99802.78;;;10.47
65272;BMP280;51868;48.812;8.198;2023-04-25T02:37:20;99796.53;;;10.47
65272;BMP280;51868;48.812;8.198;2023-04-25T02:39:47;99807.53;;;10.45
65272;BMP280;51868;48.812;8.198;2023-04-25T02:42:15;99805.44;;;10.43
65272;BMP280;51868;48.812;8.198;2023-04-25T02:44:43;99800.56;;;10.44
65272;BMP280;51868;48.812;8.198;2023-04-25T02:47:11;99798.50;;;10.44
65272;BMP280;51868;48.812;8.198;2023-04-25T02:49:40;99790.97;;;10.47
65272;BMP280;51868;48.812;8.198;2023-04-25T02:52:07;99785.44;;;10.47
65272;BMP280;51868;48.812;8.198;2023-04-25T02:54:35;99793.03;;;10.46
65272;BMP280;51868;48.812;8.198;2023-04-25T02:57:03;99786.78;;;10.46
65272;BMP280;51868;48.812;8.198;2023-04-25T02:59:30;99788.81;;;10.45
65272;BMP280;51868;48.812;8.198;2023-04-25T03:01:58;99774.94;;;10.45
65272;BMP280;51868;48.812;8.198;2023-04-25T03:04:26;99777.72;;;10.45
65272;BMP280;51868;48.812;8.198;2023-04-25T03:06:55;99777.72;;;10.45
65272;BMP280;51868;48.812;8.198;2023-04-25T03:09:23;99777.72;;;10.45
65272;BMP280;51868;48.812;8.198;2023-04-25T03:11:51;99774.34;;;10.47
65272;BMP280;51868;48.812;8.198;2023-04-25T03:14:19;99763.94;;;10.47
65272;BMP280;51868;48.812;8.198;2023-04-25T03:16:47;99759.84;;;10.48
65272;BMP280;51868;48.812;8.198;2023-04-25T03:19:15;99759.94;;;10.50
65272;BMP280;51868;48.812;8.198;2023-04-25T03:21:43;99763.25;;;10.47
65272;BMP280;51868;48.812;8.198;2023-04-25T03:24:13;99770.75;;;10.44
65272;BMP280;51868;48.812;8.198;2023-04-25T03:26:40;99758.94;;;10.44
65272;BMP280;51868;48.812;8.198;2023-04-25T03:29:08;99751.28;;;10.42
65272;BMP280;51868;48.812;8.198;2023-04-25T03:31:36;99762.38;;;10.42
65272;BMP280;51868;48.812;8.198;2023-04-25T03:34:04;99767.91;;;10.42
65272;BMP280;51868;48.812;8.198;2023-04-25T03:36:31;99760.94;;;10.41
65272;BMP280;51868;48.812;8.198;2023-04-25T03:38:59;99763.63;;;10.39
65272;BMP280;51868;48.812;8.198;2023-04-25T03:41:28;99758.09;;;10.39
65272;BMP280;51868;48.812;8.198;2023-04-25T03:43:56;99760.84;;;10.39
65272;BMP280;51868;48.812;8.198;2023-04-25T03:46:24;99752.53;;;10.39
65272;BMP280;51868;48.812;8.198;2023-04-25T03:48:52;99752.53;;;10.39
65272;BMP280;51868;48.812;8.198;2023-04-25T03:51:20;99749.84;;;10.41
65272;BMP280;51868;48.812;8.198;2023-04-25T03:53:47;99752.72;;;10.43
65272;BMP280;51868;48.812;8.198;2023-04-25T03:56:15;99755.41;;;10.41
65272;BMP280;51868;48.812;8.198;2023-04-25T03:58:46;99754.66;;;10.40
65272;BMP280;51868;48.812;8.198;2023-04-25T04:01:14;99749.75;;;10.39
65272;BMP280;51868;48.812;8.198;2023-04-25T04:03:42;99751.81;;;10.38
65272;BMP280;51868;48.812;8.198;2023-04-25T04:06:10;99747.78;;;10.42
65272;BMP280;51868;48.812;8.198;2023-04-25T04:08:39;99749.94;;;10.43
65272;BMP280;51868;48.812;8.198;2023-04-25T04:11:07;99750.72;;;10.46
65272;BMP280;51868;48.812;8.198;2023-04-25T04:13:34;99750.00;;;10.45
65272;BMP280;51868;48.812;8.198;2023-04-25T04:16:03;99743.13;;;10.46
65272;BMP280;51868;48.812;8.198;2023-04-25T04:18:31;99741.75;;;10.47
65272;BMP280;51868;48.812;8.198;2023-04-25T04:21:00;99742.50;;;10.48
65272;BMP280;51868;48.812;8.198;2023-04-25T04:23:27;99743.91;;;10.49
65272;BMP280;51868;48.812;8.198;2023-04-25T04:25:55;99740.34;;;10.46
65272;BMP280;51868;48.812;8.198;2023-04-25T04:28:22;99746.59;;;10.47
65272;BMP280;51868;48.812;8.198;2023-04-25T04:30:50;99747.31;;;10.47
65272;BMP280;51868;48.812;8.198;2023-04-25T04:33:20;99748.75;;;10.48
65272;BMP280;51868;48.812;8.198;2023-04-25T04:35:55;99750.16;;;10.49
65272;BMP280;51868;48.812;8.198;2023-04-25T04:38:23;99743.19;;;10.48
65272;BMP280;51868;48.812;8.198;2023-04-25T04:40:51;99745.19;;;10.46
65272;BMP280;51868;48.812;8.198;2023-04-25T04:43:21;99753.41;;;10.44
65272;BMP280;51868;48.812;8.198;2023-04-25T04:45:50;99751.19;;;10.40
65272;BMP280;51868;48.812;8.198;2023-04-25T04:48:19;99753.78;;;10.36
65272;BMP280;51868;48.812;8.198;2023-04-25T04:50:47;99754.34;;;10.32
65272;BMP280;51868;48.812;8.198;2023-04-25T04:53:15;99763.38;;;10.33
65272;BMP280;51868;48.812;8.198;2023-04-25T04:55:42;99770.41;;;10.36
65272;BMP280;51868;48.812;8.198;2023-04-25T04:58:10;99777.41;;;10.37
65272;BMP280;51868;48.812;8.198;2023-04-25T05:00:37;99776.06;;;10.38
65272;BMP280;51868;48.812;8.198;2023-04-25T05:03:06;99776.06;;;10.38
65272;BMP280;51868;48.812;8.198;2023-04-25T05:05:35;99779.41;;;10.34
65272;BMP280;51868;48.812;8.198;2023-04-25T05:08:06;99785.47;;;10.31
65272;BMP280;51868;48.812;8.198;2023-04-25T05:10:33;99776.28;;;10.26
65272;BMP280;51868;48.812;8.198;2023-04-25T05:13:01;99785.31;;;10.27
65272;BMP280;51868;48.812;8.198;2023-04-25T05:15:29;99782.59;;;10.29
65272;BMP280;51868;48.812;8.198;2023-04-25T05:17:56;99783.19;;;10.25
65272;BMP280;51868;48.812;8.198;2023-04-25T05:20:24;99787.28;;;10.24
65272;BMP280;51868;48.812;8.198;2023-04-25T05:22:53;99787.94;;;10.23
65272;BMP280;51868;48.812;8.198;2023-04-25T09:45:47;100051.47;;;9.38
65272;BMP280;51868;48.812;8.198;2023-04-25T09:48:18;100057.72;;;9.38
65272;BMP280;51868;48.812;8.198;2023-04-25T09:50:53;100054.34;;;9.40
65272;BMP280;51868;48.812;8.198;2023-04-25T09:53:30;100059.06;;;9.51
65272;BMP280;51868;48.812;8.198;2023-04-25T09:56:10;100054.84;;;9.64
65272;BMP280;51868;48.812;8.198;2023-04-25T10:01:48;100068.75;;;9.80
65272;BMP280;51868;48.812;8.198;2023-04-25T10:04:16;100067.94;;;9.77
65272;BMP280;51868;48.812;8.198;2023-04-25T10:06:55;100064.44;;;9.77
65272;BMP280;51868;48.812;8.198;2023-04-25T10:09:24;100073.06;;;9.83
65272;BMP280;51868;48.812;8.198;2023-04-25T10:11:55;100073.97;;;9.87
65272;BMP280;51868;48.812;8.198;2023-04-25T10:14:24;100069.63;;;9.98
65272;BMP280;51868;48.812;8.198;2023-04-25T10:16:56;100075.13;;;10.12
65272;BMP280;51868;48.812;8.198;2023-04-25T10:19:41;100074.94;;;10.08
65272;BMP280;51868;48.812;8.198;2023-04-25T10:22:11;100085.44;;;9.96
65272;BMP280;51868;48.812;8.198;2023-04-25T10:24:40;100088.63;;;9.90
65272;BMP280;51868;48.812;8.198;2023-04-25T10:27:08;100100.59;;;9.79
65272;BMP280;51868;48.812;8.198;2023-04-25T10:29:36;100103.25;;;9.77
65272;BMP280;51868;48.812;8.198;2023-04-25T10:32:05;100100.88;;;9.71
65272;BMP280;51868;48.812;8.198;2023-04-25T10:34:41;100102.00;;;9.66
65272;BMP280;51868;48.812;8.198;2023-04-25T10:37:09;100108.19;;;9.64
65272;BMP280;51868;48.812;8.198;2023-04-25T10:39:38;100106.53;;;9.59
65272;BMP280;51868;48.812;8.198;2023-04-25T10:42:09;100102.94;;;9.57
65272;BMP280;51868;48.812;8.198;2023-04-25T10:50:38;100101.19;;;9.77
65272;BMP280;51868;48.812;8.198;2023-04-25T10:53:18;100101.50;;;9.83
65272;BMP280;51868;48.812;8.198;2023-04-25T10:55:50;100108.78;;;9.90
65272;BMP280;51868;48.812;8.198;2023-04-25T11:01:29;100109.88;;;9.85
65272;BMP280;51868;48.812;8.198;2023-04-25T11:04:03;100108.97;;;9.81
65272;BMP280;51868;48.812;8.198;2023-04-25T11:06:37;100111.56;;;9.77
65272;BMP280;51868;48.812;8.198;2023-04-25T11:09:09;100113.69;;;9.78
65272;BMP280;51868;48.812;8.198;2023-04-25T11:11:39;100113.91;;;9.82
65272;BMP280;51868;48.812;8.198;2023-04-25T11:14:06;100117.59;;;9.87
65272;BMP280;51868;48.812;8.198;2023-04-25T11:16:34;100123.34;;;9.91
65272;BMP280;51868;48.812;8.198;2023-04-25T11:19:02;100122.09;;;9.94
65272;BMP280;51868;48.812;8.198;2023-04-25T11:21:30;100120.88;;;9.97
65272;BMP280;51868;48.812;8.198;2023-04-25T11:24:00;100119.63;;;10.00
65272;BMP280;51868;48.812;8.198;2023-04-25T11:26:28;100116.94;;;10.02
65272;BMP280;51868;48.812;8.198;2023-04-25T11:28:57;100113.63;;;10.06
65272;BMP280;51868;48.812;8.198;2023-04-25T11:31:25;100113.75;;;10.08
65272;BMP280;51868;48.812;8.198;2023-04-25T11:33:53;100116.09;;;10.13
65272;BMP280;51868;48.812;8.198;2023-04-25T11:36:22;100122.56;;;10.18
65272;BMP280;51868;48.812;8.198;2023-04-25T11:38:50;100120.19;;;10.12
65272;BMP280;51868;48.812;8.198;2023-04-25T11:41:21;100124.31;;;10.11
65272;BMP280;51868;48.812;8.198;2023-04-25T11:43:49;100122.88;;;10.10
65272;BMP280;51868;48.812;8.198;2023-04-25T11:46:21;100128.41;;;10.10
65272;BMP280;51868;48.812;8.198;2023-04-25T11:48:51;100130.69;;;10.14
65272;BMP280;51868;48.812;8.198;2023-04-25T11:51:18;100126.13;;;10.21
65272;BMP280;51868;48.812;8.198;2023-04-25T11:53:46;100131.34;;;10.28
65272;BMP280;51868;48.812;8.198;2023-04-25T11:56:14;100141.94;;;10.32
65272;BMP280;51868;48.812;8.198;2023-04-25T11:58:56;100146.31;;;10.37
65272;BMP280;51868;48.812;8.198;2023-04-25T12:01:27;100146.53;;;10.41
65272;BMP280;51868;48.812;8.198;2023-04-25T12:03:58;100149.19;;;10.39
65272;BMP280;51868;48.812;8.198;2023-04-25T12:06:26;100151.34;;;10.40
65272;BMP280;51868;48.812;8.198;2023-04-25T12:09:01;100155.56;;;10.42
65272;BMP280;51868;48.812;8.198;2023-04-25T12:11:30;100155.44;;;10.39
65272;BMP280;51868;48.812;8.198;2023-04-25T12:14:06;100155.97;;;10.36
65272;BMP280;51868;48.812;8.198;2023-04-25T12:16:40;100158.72;;;10.36
65272;BMP280;51868;48.812;8.198;2023-04-25T12:19:20;100165.94;;;10.41
65272;BMP280;51868;48.812;8.198;2023-04-25T12:21:59;100159.66;;;10.40
65272;BMP280;51868;48.812;8.198;2023-04-25T12:24:44;100162.34;;;10.38
65272;BMP280;51868;48.812;8.198;2023-04-25T12:27:27;100164.50;;;10.40
65272;BMP280;51868;48.812;8.198;2023-04-25T12:29:57;100178.25;;;10.38
65272;BMP280;51868;48.812;8.198;2023-04-25T12:32:24;100186.47;;;10.36
65272;BMP280;51868;48.812;8.198;2023-04-25T12:34:52;100191.13;;;10.31
65272;BMP280;51868;48.812;8.198;2023-04-25T12:37:19;100197.00;;;10.24
65272;BMP280;51868;48.812;8.198;2023-04-25T12:39:49;100200.72;;;10.14
65272;BMP280;51868;48.812;8.198;2023-04-25T12:42:17;100196.09;;;10.05
65272;BMP280;51868;48.812;8.198;2023-04-25T12:44:45;100201.34;;;9.99
65272;BMP280;51868;48.812;8.198;2023-04-25T12:47:14;100200.41;;;9.94
65272;BMP280;51868;48.812;8.198;2023-04-25T12:49:42;100200.41;;;9.94
65272;BMP280;51868;48.812;8.198;2023-04-25T12:52:09;100191.38;;;9.94
65272;BMP280;51868;48.812;8.198;2023-04-25T12:54:37;100189.31;;;9.94
65272;BMP280;51868;48.812;8.198;2023-04-25T12:57:08;100197.16;;;9.98
65272;BMP280;51868;48.812;8.198;2023-04-25T12:59:35;100191.00;;;10.00
65272;BMP280;51868;48.812;8.198;2023-04-25T13:02:03;100185.63;;;10.04
65272;BMP280;51868;48.812;8.198;2023-04-25T13:04:32;100185.22;;;10.09
65272;BMP280;51868;48.812;8.198;2023-04-25T13:06:59;100185.69;;;10.20
65272;BMP280;51868;48.812;8.198;2023-04-25T13:09:27;100183.53;;;10.32
65272;BMP280;51868;48.812;8.198;2023-04-25T13:11:55;100187.06;;;10.48
65272;BMP280;51868;48.812;8.198;2023-04-25T13:14:24;100190.59;;;10.64
65272;BMP280;51868;48.812;8.198;2023-04-25T13:16:52;100182.41;;;10.82
65272;BMP280;51868;48.812;8.198;2023-04-25T13:19:20;100170.97;;;10.90
65272;BMP280;51868;48.812;8.198;2023-04-25T13:21:50;100174.09;;;10.98
65272;BMP280;51868;48.812;8.198;2023-04-25T13:24:17;100169.19;;;11.13
65272;BMP280;51868;48.812;8.198;2023-04-25T13:26:45;100167.63;;;11.25
65272;BMP280;51868;48.812;8.198;2023-04-25T13:29:12;100174.97;;;11.34
65272;BMP280;51868;48.812;8.198;2023-04-25T13:31:40;100174.78;;;11.46
65272;BMP280;51868;48.812;8.198;2023-04-25T13:34:08;100179.34;;;11.55
65272;BMP280;51868;48.812;8.198;2023-04-25T13:36:36;100185.44;;;11.68
65272;BMP280;51868;48.812;8.198;2023-04-25T13:39:05;100180.47;;;11.82
65272;BMP280;51868;48.812;8.198;2023-04-25T13:41:33;100184.53;;;11.97
65272;BMP280;51868;48.812;8.198;2023-04-25T13:44:00;100177.56;;;12.14
65272;BMP280;51868;48.812;8.198;2023-04-25T13:46:28;100173.00;;;12.22
65272;BMP280;51868;48.812;8.198;2023-04-25T13:49:11;100173.59;;;12.19
65272;BMP280;51868;48.812;8.198;2023-04-25T13:51:40;100178.59;;;12.04
65272;BMP280;51868;48.812;8.198;2023-04-25T13:54:10;100174.94;;;12.00
65272;BMP280;51868;48.812;8.198;2023-04-25T13:56:37;100185.41;;;12.01
65272;BMP280;51868;48.812;8.198;2023-04-25T13:59:08;100175.06;;;12.04
65272;BMP280;51868;48.812;8.198;2023-04-25T14:01:36;100180.09;;;12.08
65272;BMP280;51868;48.812;8.198;2023-04-25T14:04:04;100183.13;;;12.14
65272;BMP280;51868;48.812;8.198;2023-04-25T14:06:31;100186.31;;;12.24
65272;BMP280;51868;48.812;8.198;2023-04-25T14:08:59;100183.84;;;12.32
65272;BMP280;51868;48.812;8.198;2023-04-25T14:11:29;100174.16;;;12.33
65272;BMP280;51868;48.812;8.198;2023-04-25T14:13:57;100185.19;;;12.31
65272;BMP280;51868;48.812;8.198;2023-04-25T14:16:24;100179.97;;;12.21
65272;BMP280;51868;48.812;8.198;2023-04-25T14:18:52;100188.72;;;12.14
65272;BMP280;51868;48.812;8.198;2023-04-25T14:21:20;100181.50;;;12.09
65272;BMP280;51868;48.812;8.198;2023-04-25T14:23:48;100189.13;;;12.08
65272;BMP280;51868;48.812;8.198;2023-04-25T14:26:16;100178.41;;;12.00
65272;BMP280;51868;48.812;8.198;2023-04-25T14:28:45;100179.22;;;12.03
65272;BMP280;51868;48.812;8.198;2023-04-25T14:31:12;100181.50;;;12.09
65272;BMP280;51868;48.812;8.198;2023-04-25T14:33:40;100183.13;;;12.14
65272;BMP280;51868;48.812;8.198;2023-04-25T14:36:09;100178.34;;;12.16
65272;BMP280;51868;48.812;8.198;2023-04-25T14:38:37;100194.31;;;12.16
65272;BMP280;51868;48.812;8.198;2023-04-25T14:41:04;100198.28;;;12.11
65272;BMP280;51868;48.812;8.198;2023-04-25T14:43:32;100195.41;;;12.09
65272;BMP280;51868;48.812;8.198;2023-04-25T14:46:01;100180.19;;;12.10
65272;BMP280;51868;48.812;8.198;2023-04-25T14:48:29;100181.22;;;12.18
65272;BMP280;51868;48.812;8.198;2023-04-25T14:50:57;100175.97;;;12.26
65272;BMP280;51868;48.812;8.198;2023-04-25T14:53:26;100180.44;;;12.34
65272;BMP280;51868;48.812;8.198;2023-04-25T14:55:56;100184.16;;;12.40
65272;BMP280;51868;48.812;8.198;2023-04-25T14:58:24;100193.22;;;12.41
65272;BMP280;51868;48.812;8.198;2023-04-25T15:00:51;100196.00;;;12.41
65272;BMP280;51868;48.812;8.198;2023-04-25T15:03:21;100192.59;;;12.42
65272;BMP280;51868;48.812;8.198;2023-04-25T15:05:49;100196.97;;;12.47
65272;BMP280;51868;48.812;8.198;2023-04-25T15:08:16;100197.03;;;12.49
65272;BMP280;51868;48.812;8.198;2023-04-25T15:10:44;100199.84;;;12.49
65272;BMP280;51868;48.812;8.198;2023-04-25T15:13:12;100195.03;;;12.52
65272;BMP280;51868;48.812;8.198;2023-04-25T15:15:39;100202.75;;;12.53
65272;BMP280;51868;48.812;8.198;2023-04-25T15:18:07;100199.91;;;12.51
65272;BMP280;51868;48.812;8.198;2023-04-25T15:20:38;100208.25;;;12.51
65272;BMP280;51868;48.812;8.198;2023-04-25T15:23:27;100204.75;;;12.51
65272;BMP280;51868;48.812;8.198;2023-04-25T15:29:33;100221.13;;;12.43
65272;BMP280;51868;48.812;8.198;2023-04-25T15:32:11;100220.91;;;12.37
65272;BMP280;51868;48.812;8.198;2023-04-25T15:35:22;100225.44;;;12.28
65272;BMP280;51868;48.812;8.198;2023-04-25T15:38:23;100233.13;;;12.12
65272;BMP280;51868;48.812;8.198;2023-04-25T15:41:01;100240.38;;;11.85
65272;BMP280;51868;48.812;8.198;2023-04-25T15:46:39;100242.22;;;11.47
65272;BMP280;51868;48.812;8.198;2023-04-25T15:49:25;100241.84;;;11.23
65272;BMP280;51868;48.812;8.198;2023-04-25T15:52:19;100248.00;;;11.05
65272;BMP280;51868;48.812;8.198;2023-04-25T15:54:50;100249.84;;;10.85
65272;BMP280;51868;48.812;8.198;2023-04-25T15:57:24;100262.88;;;10.67
65272;BMP280;51868;48.812;8.198;2023-04-25T15:59:53;100263.72;;;10.55
65272;BMP280;51868;48.812;8.198;2023-04-25T16:02:25;100264.03;;;10.48
65272;BMP280;51868;48.812;8.198;2023-04-25T16:04:57;100268.69;;;10.43
65272;BMP280;51868;48.812;8.198;2023-04-25T16:07:39;100269.63;;;10.34
65272;BMP280;51868;48.812;8.198;2023-04-25T16:10:13;100263.66;;;10.26
65272;BMP280;51868;48.812;8.198;2023-04-25T16:12:46;100264.09;;;10.20
65272;BMP280;51868;48.812;8.198;2023-04-25T16:15:15;100263.88;;;10.16
65272;BMP280;51868;48.812;8.198;2023-04-25T16:17:43;100264.28;;;10.10
65272;BMP280;51868;48.812;8.198;2023-04-25T16:20:11;100271.97;;;10.12
65272;BMP280;51868;48.812;8.198;2023-04-25T16:22:40;100257.09;;;10.19
65272;BMP280;51868;48.812;8.198;2023-04-25T16:25:08;100265.03;;;10.25
65272;BMP280;51868;48.812;8.198;2023-04-25T16:27:38;100262.41;;;10.29
65272;BMP280;51868;48.812;8.198;2023-04-25T16:30:06;100261.09;;;10.30
65272;BMP280;51868;48.812;8.198;2023-04-25T16:32:34;100263.34;;;10.33
65272;BMP280;51868;48.812;8.198;2023-04-25T16:35:03;100260.16;;;10.39
65272;BMP280;51868;48.812;8.198;2023-04-25T16:37:30;100264.53;;;10.44
65272;BMP280;51868;48.812;8.198;2023-04-25T16:39:58;100258.69;;;10.52
65272;BMP280;51868;48.812;8.198;2023-04-25T16:42:25;100262.25;;;10.54
65272;BMP280;51868;48.812;8.198;2023-04-25T16:44:54;100259.59;;;10.56
65272;BMP280;51868;48.812;8.198;2023-04-25T16:47:22;100264.41;;;10.56
65272;BMP280;51868;48.812;8.198;2023-04-25T16:49:50;100261.75;;;10.58
65272;BMP280;51868;48.812;8.198;2023-04-25T16:52:18;100263.06;;;10.57
65272;BMP280;51868;48.812;8.198;2023-04-25T16:54:48;100258.16;;;10.55
65272;BMP280;51868;48.812;8.198;2023-04-25T16:57:16;100248.28;;;10.52
65272;BMP280;51868;48.812;8.198;2023-04-25T16:59:44;100256.53;;;10.50
65272;BMP280;51868;48.812;8.198;2023-04-25T17:02:14;100257.25;;;10.51
65272;BMP280;51868;48.812;8.198;2023-04-25T17:04:42;100246.88;;;10.51
65272;BMP280;51868;48.812;8.198;2023-04-25T17:07:09;100248.94;;;10.51
65272;BMP280;51868;48.812;8.198;2023-04-25T17:09:38;100250.44;;;10.54
65272;BMP280;51868;48.812;8.198;2023-04-25T17:12:06;100260.81;;;10.53
65272;BMP280;51868;48.812;8.198;2023-04-25T17:14:33;100266.28;;;10.51
65272;BMP280;51868;48.812;8.198;2023-04-25T17:17:02;100265.66;;;10.53
65272;BMP280;51868;48.812;8.198;2023-04-25T17:19:31;100264.31;;;10.54
65272;BMP280;51868;48.812;8.198;2023-04-25T17:21:59;100261.66;;;10.56
65272;BMP280;51868;48.812;8.198;2023-04-25T17:24:26;100254.75;;;10.57
65272;BMP280;51868;48.812;8.198;2023-04-25T17:26:54;100265.13;;;10.56
65272;BMP280;51868;48.812;8.198;2023-04-25T17:29:23;100266.38;;;10.53
65272;BMP280;51868;48.812;8.198;2023-04-25T17:31:52;100273.91;;;10.51
65272;BMP280;51868;48.812;8.198;2023-04-25T17:34:19;100275.84;;;10.48
65272;BMP280;51868;48.812;8.198;2023-04-25T17:36:48;100277.19;;;10.47
65272;BMP280;51868;48.812;8.198;2023-04-25T17:39:16;100278.53;;;10.46
65272;BMP280;51868;48.812;8.198;2023-04-25T17:41:43;100271.63;;;10.47
65272;BMP280;51868;48.812;8.198;2023-04-25T17:44:11;100277.28;;;10.49
65272;BMP280;51868;48.812;8.198;2023-04-25T17:46:38;100281.56;;;10.52
65272;BMP280;51868;48.812;8.198;2023-04-25T17:49:06;100282.41;;;10.55
65272;BMP280;51868;48.812;8.198;2023-04-25T17:51:34;100286.03;;;10.57
65272;BMP280;51868;48.812;8.198;2023-04-25T17:54:03;100282.59;;;10.59
65272;BMP280;51868;48.812;8.198;2023-04-25T17:56:32;100294.94;;;10.56
65272;BMP280;51868;48.812;8.198;2023-04-25T17:59:00;100296.09;;;10.51
65272;BMP280;51868;48.812;8.198;2023-04-25T18:01:28;100302.25;;;10.49
65272;BMP280;51868;48.812;8.198;2023-04-25T18:03:55;100307.69;;;10.47
65272;BMP280;51868;48.812;8.198;2023-04-25T18:06:23;100304.09;;;10.45
65272;BMP280;51868;48.812;8.198;2023-04-25T18:08:53;100308.22;;;10.44
65272;BMP280;51868;48.812;8.198;2023-04-25T18:11:23;100310.09;;;10.39
65272;BMP280;51868;48.812;8.198;2023-04-25T18:13:51;100305.69;;;10.34
65272;BMP280;51868;48.812;8.198;2023-04-25T18:16:18;100311.25;;;10.34
65272;BMP280;51868;48.812;8.198;2023-04-25T18:18:46;100309.78;;;10.33
65272;BMP280;51868;48.812;8.198;2023-04-25T18:21:18;100329.81;;;10.31
65272;BMP280;51868;48.812;8.198;2023-04-25T18:23:46;100329.59;;;10.27
65272;BMP280;51868;48.812;8.198;2023-04-25T18:26:14;100330.84;;;10.24
65272;BMP280;51868;48.812;8.198;2023-04-25T18:28:43;100337.00;;;10.23
65272;BMP280;51868;48.812;8.198;2023-04-25T18:31:11;100349.97;;;10.18
65272;BMP280;51868;48.812;8.198;2023-04-25T18:33:39;100350.44;;;10.14
65272;BMP280;51868;48.812;8.198;2023-04-25T18:36:07;100353.13;;;10.12
65272;BMP280;51868;48.812;8.198;2023-04-25T18:38:34;100346.84;;;10.12
65272;BMP280;51868;48.812;8.198;2023-04-25T18:41:02;100355.78;;;10.10
65272;BMP280;51868;48.812;8.198;2023-04-25T18:43:47;100351.59;;;10.09
65272;BMP280;51868;48.812;8.198;2023-04-25T18:46:16;100354.38;;;10.09
65272;BMP280;51868;48.812;8.198;2023-04-25T18:48:47;100359.91;;;10.09
65272;BMP280;51868;48.812;8.198;2023-04-25T18:51:15;100359.91;;;10.09
65272;BMP280;51868;48.812;8.198;2023-04-25T18:53:45;100377.88;;;10.08